createdAt,value
2022-12-06T00:00:02.993Z,1.60
2022-12-06T00:01:02.972Z,1.67
2022-12-06T00:02:04.027Z,1.61
2022-12-06T00:03:03.062Z,1.64
2022-12-06T00:04:02.946Z,1.63
2022-12-06T00:05:02.918Z,1.64
2022-12-06T00:06:02.916Z,1.64
2022-12-06T00:07:02.913Z,1.67
2022-12-06T00:08:02.959Z,1.67
2022-12-06T00:09:02.897Z,1.71
2022-12-06T00:10:02.897Z,1.64
2022-12-06T00:11:02.858Z,1.71
2022-12-06T00:12:02.875Z,1.67
2022-12-06T00:13:02.837Z,1.67
2022-12-06T00:14:02.841Z,1.67
2022-12-06T00:15:02.815Z,1.65
2022-12-06T00:16:02.888Z,1.64
2022-12-06T00:17:02.785Z,1.63
2022-12-06T00:18:02.823Z,1.64
2022-12-06T00:19:02.779Z,1.65
2022-12-06T00:20:02.878Z,1.64
2022-12-06T00:21:02.752Z,1.57
2022-12-06T00:22:02.743Z,1.64
2022-12-06T00:23:02.750Z,1.64
2022-12-06T00:24:02.735Z,1.64
2022-12-06T00:25:02.698Z,1.70
2022-12-06T00:26:02.697Z,1.61
2022-12-06T00:27:02.696Z,1.64
2022-12-06T00:28:02.678Z,1.67
2022-12-06T00:29:02.672Z,1.65
2022-12-06T00:30:02.725Z,1.57
2022-12-06T00:31:02.640Z,1.61
2022-12-06T00:32:02.732Z,1.44
2022-12-06T00:33:02.618Z,1.56
2022-12-06T00:34:02.634Z,1.52
2022-12-06T00:35:02.594Z,1.44
2022-12-06T00:36:02.608Z,1.47
2022-12-06T00:37:02.567Z,1.47
2022-12-06T00:38:02.562Z,1.60
2022-12-06T00:39:02.571Z,1.50
2022-12-06T00:40:02.586Z,1.53
2022-12-06T00:41:02.527Z,1.67
2022-12-06T00:42:02.549Z,1.57
2022-12-06T00:43:02.504Z,1.63
2022-12-06T00:44:02.500Z,1.60
2022-12-06T00:45:02.483Z,1.56
2022-12-06T00:46:02.605Z,1.61
2022-12-06T00:47:02.463Z,1.65
2022-12-06T00:48:02.476Z,1.61
2022-12-06T00:49:02.439Z,1.57
2022-12-06T00:50:02.521Z,1.50
2022-12-06T00:51:02.422Z,1.57
2022-12-06T00:52:02.415Z,1.57
2022-12-06T00:53:02.398Z,1.64
2022-12-06T00:54:02.425Z,1.61
2022-12-06T00:55:02.392Z,1.65
2022-12-06T00:56:02.382Z,1.61
2022-12-06T00:57:02.350Z,1.61
2022-12-06T00:58:02.355Z,1.64
2022-12-06T00:59:02.335Z,1.57
2022-12-06T01:00:02.627Z,1.53
2022-12-06T01:01:02.366Z,1.50
2022-12-06T01:02:02.315Z,1.54
2022-12-06T01:03:02.331Z,1.53
2022-12-06T01:04:02.282Z,1.56
2022-12-06T01:05:02.285Z,1.60
2022-12-06T01:06:02.287Z,1.61
2022-12-06T01:07:02.266Z,1.57
2022-12-06T01:08:02.309Z,1.56
2022-12-06T01:09:02.235Z,1.60
2022-12-06T01:10:02.299Z,1.53
2022-12-06T01:11:02.215Z,1.60
2022-12-06T01:12:02.202Z,1.53
2022-12-06T01:13:02.190Z,1.64
2022-12-06T01:14:02.179Z,1.60
2022-12-06T01:15:02.174Z,1.47
2022-12-06T01:16:02.156Z,1.54
2022-12-06T01:17:02.265Z,1.61
2022-12-06T01:18:02.125Z,1.57
2022-12-06T01:19:02.123Z,1.61
2022-12-06T01:20:02.337Z,1.60
2022-12-06T01:21:02.120Z,1.65
2022-12-06T01:22:02.084Z,1.65
2022-12-06T01:23:02.076Z,1.65
2022-12-06T01:24:02.058Z,1.71
2022-12-06T01:25:02.052Z,1.65
2022-12-06T01:26:02.040Z,1.64
2022-12-06T01:27:02.056Z,1.63
2022-12-06T01:28:02.017Z,1.68
2022-12-06T01:29:02.027Z,1.65
2022-12-06T01:30:02.375Z,1.63
2022-12-06T01:31:02.034Z,1.67
2022-12-06T01:32:01.976Z,1.65
2022-12-06T01:33:01.973Z,1.67
2022-12-06T01:34:01.963Z,1.65
2022-12-06T01:35:01.940Z,1.70
2022-12-06T01:36:01.925Z,1.63
2022-12-06T01:37:01.922Z,1.64
2022-12-06T01:38:06.084Z,1.67
2022-12-06T01:39:01.905Z,1.67
2022-12-06T01:40:02.201Z,1.79
2022-12-06T01:41:01.868Z,1.74
2022-12-06T01:42:01.879Z,1.81
2022-12-06T01:43:01.879Z,1.79
2022-12-06T01:44:01.833Z,1.79
2022-12-06T01:45:01.860Z,1.81
2022-12-06T01:46:01.857Z,1.90
2022-12-06T01:47:01.824Z,1.77
2022-12-06T01:48:01.793Z,1.90
2022-12-06T01:49:01.807Z,1.83
2022-12-06T01:50:01.899Z,1.79
2022-12-06T01:51:01.774Z,1.79
2022-12-06T01:52:01.743Z,1.82
2022-12-06T01:53:01.779Z,1.81
2022-12-06T01:54:01.759Z,1.82
2022-12-06T01:55:01.726Z,1.88
2022-12-06T01:56:01.736Z,1.83
2022-12-06T01:57:01.695Z,1.79
2022-12-06T01:58:01.689Z,1.77
2022-12-06T01:59:01.702Z,1.75
2022-12-06T02:00:02.121Z,1.85
2022-12-06T02:01:01.721Z,1.82
2022-12-06T02:02:01.737Z,1.79
2022-12-06T02:03:01.755Z,1.77
2022-12-06T02:04:01.645Z,1.83
2022-12-06T02:05:01.618Z,1.74
2022-12-06T02:06:01.596Z,1.68
2022-12-06T02:07:01.593Z,1.64
2022-12-06T02:08:01.651Z,1.64
2022-12-06T02:09:01.581Z,1.64
2022-12-06T02:10:01.706Z,1.79
2022-12-06T02:11:01.550Z,1.71
2022-12-06T02:12:01.544Z,1.79
2022-12-06T02:13:01.520Z,1.81
2022-12-06T02:14:01.516Z,1.79
2022-12-06T02:15:01.623Z,1.81
2022-12-06T02:16:01.504Z,1.81
2022-12-06T02:17:01.583Z,1.81
2022-12-06T02:18:01.483Z,1.81
2022-12-06T02:19:01.465Z,1.90
2022-12-06T02:20:01.785Z,1.77
2022-12-06T02:21:01.449Z,1.85
2022-12-06T02:22:01.434Z,1.82
2022-12-06T02:23:01.418Z,1.86
2022-12-06T02:24:01.398Z,1.92
2022-12-06T02:25:01.392Z,1.83
2022-12-06T02:26:01.374Z,1.83
2022-12-06T02:27:02.434Z,1.82
2022-12-06T02:28:01.381Z,1.95
2022-12-06T02:29:01.347Z,1.81
2022-12-06T02:30:01.611Z,1.88
2022-12-06T02:31:01.395Z,1.82
2022-12-06T02:32:01.324Z,1.81
2022-12-06T02:33:01.301Z,1.82
2022-12-06T02:34:01.304Z,1.89
2022-12-06T02:35:01.276Z,1.86
2022-12-06T02:36:01.267Z,1.83
2022-12-06T02:37:01.279Z,1.83
2022-12-06T02:38:01.248Z,1.83
2022-12-06T02:39:01.230Z,1.92
2022-12-06T02:40:01.482Z,1.92
2022-12-06T02:41:01.214Z,1.93
2022-12-06T02:42:01.193Z,1.88
2022-12-06T02:43:01.212Z,1.82
2022-12-06T02:44:01.176Z,1.95
2022-12-06T02:45:01.175Z,1.85
2022-12-06T02:46:01.240Z,1.86
2022-12-06T02:47:01.167Z,1.83
2022-12-06T02:48:01.124Z,1.83
2022-12-06T02:49:01.128Z,1.98
2022-12-06T02:50:01.493Z,1.86
2022-12-06T02:51:01.123Z,1.83
2022-12-06T02:52:01.100Z,1.92
2022-12-06T02:53:01.085Z,1.88
2022-12-06T02:54:01.082Z,1.88
2022-12-06T02:55:01.061Z,1.92
2022-12-06T02:56:01.043Z,1.92
2022-12-06T02:57:01.041Z,1.92
2022-12-06T02:58:01.038Z,1.86
2022-12-06T02:59:01.012Z,1.86
2022-12-06T03:00:01.434Z,1.75
2022-12-06T03:01:01.097Z,1.77
2022-12-06T03:02:01.159Z,1.82
2022-12-06T03:03:01.069Z,1.79
2022-12-06T03:04:00.963Z,1.77
2022-12-06T03:05:00.947Z,1.83
2022-12-06T03:06:00.944Z,1.93
2022-12-06T03:07:00.924Z,1.86
2022-12-06T03:08:01.025Z,1.77
2022-12-06T03:09:00.917Z,1.89
2022-12-06T03:10:01.184Z,1.77
2022-12-06T03:11:00.887Z,1.83
2022-12-06T03:12:00.867Z,1.85
2022-12-06T03:13:00.907Z,1.79
2022-12-06T03:14:00.848Z,1.79
2022-12-06T03:15:00.847Z,1.85
2022-12-06T03:16:00.872Z,1.77
2022-12-06T03:17:00.819Z,1.83
2022-12-06T03:18:00.802Z,1.86
2022-12-06T03:19:00.843Z,1.83
2022-12-06T03:20:01.301Z,1.79
2022-12-06T03:21:00.781Z,1.82
2022-12-06T03:22:00.758Z,1.81
2022-12-06T03:23:00.760Z,1.75
2022-12-06T03:24:00.745Z,1.77
2022-12-06T03:25:00.756Z,1.77
2022-12-06T03:26:00.711Z,1.82
2022-12-06T03:27:00.701Z,1.81
2022-12-06T03:28:00.716Z,1.81
2022-12-06T03:29:00.682Z,1.83
2022-12-06T03:30:01.010Z,1.75
2022-12-06T03:31:00.713Z,1.81
2022-12-06T03:32:00.643Z,1.85
2022-12-06T03:33:00.640Z,1.86
2022-12-06T03:34:00.645Z,1.86
2022-12-06T03:35:00.646Z,1.86
2022-12-06T03:36:00.617Z,1.77
2022-12-06T03:37:00.621Z,1.77
2022-12-06T03:38:00.587Z,1.79
2022-12-06T03:39:00.573Z,1.77
2022-12-06T03:40:00.890Z,1.79
2022-12-06T03:41:00.576Z,1.89
2022-12-06T03:42:00.538Z,1.82
2022-12-06T03:43:00.551Z,1.83
2022-12-06T03:44:00.515Z,1.83
2022-12-06T03:45:00.500Z,1.79
2022-12-06T03:46:00.725Z,1.79
2022-12-06T03:47:00.547Z,1.82
2022-12-06T03:48:00.471Z,1.93
2022-12-06T03:49:00.487Z,1.86
2022-12-06T03:50:00.813Z,1.83
2022-12-06T03:51:00.463Z,1.98
2022-12-06T03:52:00.429Z,1.92
2022-12-06T03:53:00.445Z,1.93
2022-12-06T03:54:00.400Z,1.98
2022-12-06T03:55:00.439Z,2.01
2022-12-06T03:56:00.379Z,1.93
2022-12-06T03:57:00.369Z,1.90
2022-12-06T03:58:00.377Z,1.83
2022-12-06T03:59:00.370Z,1.83
2022-12-06T04:00:00.685Z,1.90
2022-12-06T04:01:00.335Z,1.93
2022-12-06T04:02:00.381Z,1.88
2022-12-06T04:03:00.330Z,1.85
2022-12-06T04:04:00.351Z,1.83
2022-12-06T04:05:00.284Z,1.77
2022-12-06T04:06:00.279Z,1.85
2022-12-06T04:07:00.283Z,1.85
2022-12-06T04:08:00.300Z,1.92
2022-12-06T04:09:00.251Z,1.85
2022-12-06T04:10:00.522Z,1.90
2022-12-06T04:11:00.221Z,1.88
2022-12-06T04:12:00.203Z,1.86
2022-12-06T04:13:00.197Z,1.86
2022-12-06T04:14:00.280Z,1.92
2022-12-06T04:15:00.172Z,1.85
2022-12-06T04:16:00.680Z,1.90
2022-12-06T04:17:00.164Z,1.90
2022-12-06T04:18:00.145Z,1.95
2022-12-06T04:19:00.130Z,1.93
2022-12-06T04:20:00.583Z,2.01
2022-12-06T04:21:00.109Z,2.02
2022-12-06T04:22:00.118Z,1.90
2022-12-06T04:23:00.120Z,2.01
2022-12-06T04:24:00.075Z,1.92
2022-12-06T04:25:00.066Z,1.98
2022-12-06T04:26:00.069Z,2.02
2022-12-06T04:27:00.048Z,2.00
2022-12-06T04:28:01.111Z,2.04
2022-12-06T04:29:00.013Z,2.04
2022-12-06T04:30:00.292Z,2.02
2022-12-06T04:31:00.071Z,2.02
2022-12-06T04:32:00.134Z,1.98
2022-12-06T04:32:59.979Z,1.93
2022-12-06T04:33:59.982Z,1.98
2022-12-06T04:34:59.950Z,1.92
2022-12-06T04:35:59.942Z,1.90
2022-12-06T04:36:59.938Z,1.92
2022-12-06T04:37:59.928Z,1.88
2022-12-06T04:38:59.954Z,1.89
2022-12-06T04:40:00.283Z,1.90
2022-12-06T04:40:59.888Z,1.90
2022-12-06T04:41:59.863Z,1.92
2022-12-06T04:42:59.886Z,2.01
2022-12-06T04:43:59.864Z,1.88
2022-12-06T04:44:59.871Z,1.79
2022-12-06T04:45:59.827Z,1.93
2022-12-06T04:46:59.977Z,1.89
2022-12-06T04:47:59.806Z,1.93
2022-12-06T04:48:59.802Z,1.93
2022-12-06T04:50:00.061Z,1.92
2022-12-06T04:50:59.793Z,1.98
2022-12-06T04:51:59.755Z,2.00
2022-12-06T04:52:59.759Z,1.98
2022-12-06T04:53:59.735Z,1.93
2022-12-06T04:54:59.749Z,1.92
2022-12-06T04:55:59.738Z,2.02
2022-12-06T04:56:59.707Z,1.98
2022-12-06T04:57:59.694Z,2.04
2022-12-06T04:58:59.691Z,1.93
2022-12-06T05:00:00.089Z,2.01
2022-12-06T05:00:59.695Z,1.95
2022-12-06T05:01:59.656Z,2.05
2022-12-06T05:02:59.639Z,2.00
2022-12-06T05:03:59.736Z,1.98
2022-12-06T05:04:59.624Z,2.00
2022-12-06T05:05:59.632Z,1.98
2022-12-06T05:06:59.621Z,2.02
2022-12-06T05:07:59.635Z,2.00
2022-12-06T05:08:59.582Z,2.02
2022-12-06T05:10:00.003Z,2.01
2022-12-06T05:10:59.570Z,2.04
2022-12-06T05:11:59.541Z,2.01
2022-12-06T05:12:59.548Z,2.01
2022-12-06T05:13:59.519Z,1.93
2022-12-06T05:14:59.513Z,2.02
2022-12-06T05:15:59.555Z,2.00
2022-12-06T05:16:59.495Z,2.04
2022-12-06T05:17:59.491Z,2.04
2022-12-06T05:18:59.497Z,2.01
2022-12-06T05:19:59.718Z,2.02
2022-12-06T05:20:59.448Z,2.02
2022-12-06T05:21:59.433Z,1.98
2022-12-06T05:22:59.438Z,1.92
2022-12-06T05:23:59.415Z,2.01
2022-12-06T05:24:59.393Z,2.02
2022-12-06T05:25:59.389Z,2.05
2022-12-06T05:26:59.414Z,2.07
2022-12-06T05:27:59.361Z,2.07
2022-12-06T05:28:59.355Z,2.11
2022-12-06T05:29:59.681Z,2.07
2022-12-06T05:30:59.326Z,2.09
2022-12-06T05:31:59.449Z,2.11
2022-12-06T05:32:59.311Z,1.95
2022-12-06T05:33:59.293Z,2.01
2022-12-06T05:34:59.286Z,2.07
2022-12-06T05:35:59.291Z,2.02
2022-12-06T05:36:59.266Z,2.05
2022-12-06T05:37:59.277Z,2.09
2022-12-06T05:38:59.238Z,2.05
2022-12-06T05:39:59.658Z,2.02
2022-12-06T05:40:59.226Z,2.09
2022-12-06T05:41:59.228Z,2.07
2022-12-06T05:42:59.215Z,2.05
2022-12-06T05:43:59.212Z,2.15
2022-12-06T05:44:59.177Z,2.12
2022-12-06T05:45:59.205Z,2.15
2022-12-06T05:46:59.171Z,2.18
2022-12-06T05:47:59.134Z,2.07
2022-12-06T05:48:59.159Z,2.08
2022-12-06T05:49:59.319Z,2.09
2022-12-06T05:50:59.111Z,2.09
2022-12-06T05:52:03.829Z,2.19
2022-12-06T05:53:00.085Z,2.25
2022-12-06T05:53:59.089Z,2.11
2022-12-06T05:54:59.085Z,2.14
2022-12-06T05:55:59.060Z,2.15
2022-12-06T05:56:59.041Z,2.14
2022-12-06T05:57:59.045Z,2.14
2022-12-06T05:58:59.030Z,2.19
2022-12-06T05:59:59.292Z,2.25
2022-12-06T06:00:59.021Z,2.18
2022-12-06T06:01:59.158Z,2.26
2022-12-06T06:02:59.173Z,2.26
2022-12-06T06:03:58.968Z,2.20
2022-12-06T06:04:58.976Z,2.22
2022-12-06T06:05:58.961Z,2.27
2022-12-06T06:06:58.993Z,2.19
2022-12-06T06:07:58.972Z,2.20
2022-12-06T06:08:58.913Z,2.19
2022-12-06T06:09:59.148Z,2.26
2022-12-06T06:10:58.894Z,2.26
2022-12-06T06:11:58.912Z,2.23
2022-12-06T06:12:58.871Z,2.22
2022-12-06T06:13:58.849Z,2.27
2022-12-06T06:14:58.884Z,2.22
2022-12-06T06:15:58.834Z,2.25
2022-12-06T06:16:58.906Z,2.26
2022-12-06T06:17:58.804Z,2.25
2022-12-06T06:18:58.831Z,2.37
2022-12-06T06:19:58.800Z,2.23
2022-12-06T06:20:58.804Z,2.26
2022-12-06T06:21:58.783Z,2.33
2022-12-06T06:22:58.751Z,2.37
2022-12-06T06:23:58.775Z,2.36
2022-12-06T06:24:58.749Z,2.41
2022-12-06T06:25:58.723Z,2.41
2022-12-06T06:26:58.716Z,2.36
2022-12-06T06:27:58.699Z,2.36
2022-12-06T06:28:58.692Z,2.45
2022-12-06T06:29:59.063Z,2.40
2022-12-06T06:30:58.690Z,2.38
2022-12-06T06:31:58.692Z,2.40
2022-12-06T06:32:58.669Z,2.36
2022-12-06T06:33:58.635Z,2.45
2022-12-06T06:34:58.638Z,2.43
2022-12-06T06:35:58.612Z,2.38
2022-12-06T06:36:58.597Z,2.38
2022-12-06T06:37:58.598Z,2.32
2022-12-06T06:38:58.577Z,2.32
2022-12-06T06:39:58.840Z,2.37
2022-12-06T06:40:58.660Z,2.33
2022-12-06T06:41:58.547Z,2.36
2022-12-06T06:42:58.555Z,2.29
2022-12-06T06:43:58.534Z,2.32
2022-12-06T06:44:58.586Z,2.33
2022-12-06T06:45:58.551Z,2.30
2022-12-06T06:46:58.541Z,2.32
2022-12-06T06:47:58.477Z,2.41
2022-12-06T06:48:58.476Z,2.41
2022-12-06T06:49:58.880Z,2.41
2022-12-06T06:50:58.461Z,2.40
2022-12-06T06:51:58.433Z,2.37
2022-12-06T06:52:58.422Z,2.41
2022-12-06T06:53:58.426Z,2.41
2022-12-06T06:54:58.421Z,2.45
2022-12-06T06:55:58.391Z,2.41
2022-12-06T06:56:58.403Z,2.48
2022-12-06T06:57:58.355Z,2.38
2022-12-06T06:58:58.384Z,2.40
2022-12-06T06:59:58.675Z,2.41
2022-12-06T07:00:58.435Z,2.47
2022-12-06T07:01:58.458Z,2.44
2022-12-06T07:02:58.379Z,2.45
2022-12-06T07:03:58.324Z,2.50
2022-12-06T07:04:58.292Z,2.53
2022-12-06T07:05:58.284Z,2.59
2022-12-06T07:06:58.287Z,2.53
2022-12-06T07:07:58.322Z,2.47
2022-12-06T07:08:58.250Z,2.56
2022-12-06T07:09:58.768Z,2.50
2022-12-06T07:10:58.229Z,2.51
2022-12-06T07:11:58.228Z,2.50
2022-12-06T07:12:58.202Z,2.40
2022-12-06T07:13:58.189Z,2.53
2022-12-06T07:14:58.192Z,2.51
2022-12-06T07:15:58.175Z,2.51
2022-12-06T07:16:58.251Z,2.50
2022-12-06T07:17:58.156Z,2.43
2022-12-06T07:18:58.172Z,2.43
2022-12-06T07:19:58.399Z,2.45
2022-12-06T07:20:58.109Z,2.43
2022-12-06T07:21:58.106Z,2.47
2022-12-06T07:22:58.117Z,2.51
2022-12-06T07:23:58.080Z,2.51
2022-12-06T07:24:58.070Z,2.55
2022-12-06T07:25:58.056Z,2.48
2022-12-06T07:26:58.074Z,2.58
2022-12-06T07:27:58.053Z,2.51
2022-12-06T07:28:58.047Z,2.59
2022-12-06T07:29:58.364Z,2.61
2022-12-06T07:30:58.087Z,2.59
2022-12-06T07:31:57.986Z,2.53
2022-12-06T07:32:58.000Z,2.50
2022-12-06T07:33:57.970Z,2.53
2022-12-06T07:34:57.981Z,2.55
2022-12-06T07:36:14.078Z,2.61
2022-12-06T07:36:58.949Z,2.61
2022-12-06T07:37:57.927Z,2.61
2022-12-06T07:38:57.927Z,2.56
2022-12-06T07:39:58.099Z,2.61
2022-12-06T07:41:05.435Z,2.55
2022-12-06T07:41:58.881Z,2.61
2022-12-06T07:42:57.861Z,2.61
2022-12-06T07:43:57.858Z,2.61
2022-12-06T07:45:01.569Z,2.58
2022-12-06T07:45:57.895Z,2.62
2022-12-06T07:46:57.818Z,2.61
2022-12-06T07:47:57.808Z,2.68
2022-12-06T07:48:57.797Z,2.62
2022-12-06T07:49:58.141Z,2.63
2022-12-06T07:50:57.796Z,2.62
2022-12-06T07:51:57.767Z,2.73
2022-12-06T07:52:57.780Z,2.69
2022-12-06T07:53:57.733Z,2.74
2022-12-06T07:54:57.732Z,2.62
2022-12-06T07:55:57.739Z,2.76
2022-12-06T07:56:57.712Z,2.69
2022-12-06T07:57:57.712Z,2.71
2022-12-06T07:58:57.694Z,2.69
2022-12-06T07:59:57.845Z,2.74
2022-12-06T08:00:57.689Z,2.74
2022-12-06T08:01:57.713Z,2.76
2022-12-06T08:02:57.664Z,2.77
2022-12-06T08:03:57.768Z,2.73
2022-12-06T08:04:57.717Z,2.83
2022-12-06T08:05:57.599Z,2.84
2022-12-06T08:06:57.627Z,2.89
2022-12-06T08:07:57.672Z,2.84
2022-12-06T08:08:57.598Z,2.80
2022-12-06T08:09:57.920Z,2.83
2022-12-06T08:10:57.553Z,2.81
2022-12-06T08:11:57.531Z,2.87
2022-12-06T08:12:57.537Z,2.81
2022-12-06T08:13:57.507Z,2.87
2022-12-06T08:14:59.795Z,2.90
2022-12-06T08:15:57.535Z,2.86
2022-12-06T08:16:57.504Z,2.92
2022-12-06T08:17:57.472Z,2.87
2022-12-06T08:18:57.455Z,2.90
2022-12-06T08:19:57.630Z,2.92
2022-12-06T08:20:57.467Z,2.92
2022-12-06T08:21:57.441Z,2.98
2022-12-06T08:22:57.450Z,2.94
2022-12-06T08:23:57.408Z,2.99
2022-12-06T08:24:57.397Z,2.97
2022-12-06T08:25:57.403Z,2.99
2022-12-06T08:26:57.380Z,2.98
2022-12-06T08:27:57.360Z,2.98
2022-12-06T08:28:57.350Z,2.99
2022-12-06T08:29:57.523Z,2.99
2022-12-06T08:31:02.847Z,2.97
2022-12-06T08:31:58.316Z,2.98
2022-12-06T08:32:57.308Z,2.99
2022-12-06T08:33:57.290Z,3.05
2022-12-06T08:34:57.292Z,3.05
2022-12-06T08:35:57.298Z,2.98
2022-12-06T08:37:03.008Z,2.97
2022-12-06T08:37:58.253Z,3.08
2022-12-06T08:38:57.261Z,3.01
2022-12-06T08:39:57.296Z,3.07
2022-12-06T08:40:57.240Z,3.07
2022-12-06T08:41:57.205Z,3.04
2022-12-06T08:42:57.199Z,3.07
2022-12-06T08:43:57.178Z,3.05
2022-12-06T08:44:57.178Z,3.07
2022-12-06T08:45:57.221Z,3.08
2022-12-06T08:46:57.176Z,3.13
2022-12-06T08:47:57.142Z,3.01
2022-12-06T08:48:57.135Z,3.05
2022-12-06T08:49:57.124Z,3.04
2022-12-06T08:50:57.101Z,3.07
2022-12-06T08:51:57.136Z,3.04
2022-12-06T08:52:57.107Z,3.12
2022-12-06T08:53:57.093Z,3.13
2022-12-06T08:54:58.093Z,3.20
2022-12-06T08:56:02.271Z,3.16
2022-12-06T08:56:58.061Z,3.23
2022-12-06T08:57:57.021Z,3.20
2022-12-06T08:58:57.046Z,3.23
2022-12-06T08:59:57.012Z,3.23
2022-12-06T09:00:57.002Z,3.19
2022-12-06T09:01:57.088Z,3.28
2022-12-06T09:02:59.048Z,3.15
2022-12-06T09:03:56.966Z,3.20
2022-12-06T09:04:57.013Z,3.37
2022-12-06T09:05:56.941Z,3.20
2022-12-06T09:06:56.925Z,3.37
2022-12-06T09:07:56.994Z,3.25
2022-12-06T09:08:56.900Z,3.30
2022-12-06T09:09:56.895Z,3.34
2022-12-06T09:10:56.955Z,3.28
2022-12-06T09:11:56.864Z,3.37
2022-12-06T09:12:56.865Z,3.39
2022-12-06T09:13:56.851Z,3.42
2022-12-06T09:14:56.841Z,3.44
2022-12-06T09:15:56.881Z,3.41
2022-12-06T09:16:56.856Z,3.45
2022-12-06T09:17:56.798Z,3.50
2022-12-06T09:18:56.797Z,3.52
2022-12-06T09:20:00.761Z,3.54
2022-12-06T09:20:57.802Z,3.62
2022-12-06T09:21:56.757Z,3.62
2022-12-06T09:22:56.757Z,3.57
2022-12-06T09:23:56.730Z,3.68
2022-12-06T09:24:56.738Z,3.62
2022-12-06T09:25:56.716Z,3.71
2022-12-06T09:26:56.753Z,3.70
2022-12-06T09:27:56.694Z,3.72
2022-12-06T09:28:56.687Z,3.68
2022-12-06T09:29:56.675Z,3.60
2022-12-06T09:30:56.716Z,3.62
2022-12-06T09:31:56.649Z,3.68
2022-12-06T09:32:56.657Z,3.67
2022-12-06T09:33:56.633Z,3.68
2022-12-06T09:34:56.617Z,3.63
2022-12-06T09:35:56.607Z,3.68
2022-12-06T09:36:56.598Z,3.63
2022-12-06T09:37:56.623Z,3.70
2022-12-06T09:38:56.593Z,3.64
2022-12-06T09:39:56.572Z,3.71
2022-12-06T09:40:56.551Z,3.68
2022-12-06T09:41:56.545Z,3.70
2022-12-06T09:42:56.565Z,3.78
2022-12-06T09:43:56.520Z,3.78
2022-12-06T09:44:56.507Z,3.81
2022-12-06T09:45:56.517Z,3.82
2022-12-06T09:46:56.568Z,3.82
2022-12-06T09:47:56.516Z,3.81
2022-12-06T09:48:56.462Z,3.88
2022-12-06T09:49:56.468Z,3.84
2022-12-06T09:50:56.439Z,3.80
2022-12-06T09:51:56.434Z,3.82
2022-12-06T09:52:56.419Z,3.82
2022-12-06T09:53:56.429Z,3.84
2022-12-06T09:55:00.260Z,3.89
2022-12-06T09:55:56.381Z,3.89
2022-12-06T09:56:56.380Z,3.98
2022-12-06T09:57:56.365Z,3.82
2022-12-06T09:58:56.390Z,3.95
2022-12-06T09:59:56.368Z,3.84
2022-12-06T10:00:56.336Z,3.84
2022-12-06T10:01:56.383Z,3.88
2022-12-06T10:02:56.352Z,3.93
2022-12-06T10:03:56.308Z,3.89
2022-12-06T10:04:56.288Z,3.92
2022-12-06T10:05:56.279Z,4.00
2022-12-06T10:06:56.260Z,3.96
2022-12-06T10:07:56.455Z,3.99
2022-12-06T10:08:56.368Z,4.06
2022-12-06T10:09:56.244Z,4.06
2022-12-06T10:10:56.244Z,4.00
2022-12-06T10:11:56.211Z,3.96
2022-12-06T10:12:56.199Z,3.96
2022-12-06T10:13:56.208Z,3.99
2022-12-06T10:14:56.204Z,3.95
2022-12-06T10:15:56.228Z,3.98
2022-12-06T10:16:56.152Z,3.99
2022-12-06T10:17:56.251Z,4.08
2022-12-06T10:18:56.146Z,3.93
2022-12-06T10:19:56.123Z,3.98
2022-12-06T10:20:56.130Z,3.92
2022-12-06T10:21:56.101Z,3.98
2022-12-06T10:22:56.089Z,3.96
2022-12-06T10:24:00.200Z,3.95
2022-12-06T10:24:57.089Z,3.96
2022-12-06T10:25:56.059Z,3.96
2022-12-06T10:26:56.045Z,3.98
2022-12-06T10:27:56.034Z,4.13
2022-12-06T10:28:56.028Z,4.13
2022-12-06T10:29:56.038Z,4.20
2022-12-06T10:30:56.128Z,4.16
2022-12-06T10:31:56.113Z,4.14
2022-12-06T10:32:55.995Z,4.11
2022-12-06T10:33:55.963Z,4.16
2022-12-06T10:34:55.954Z,4.21
2022-12-06T10:35:55.969Z,4.14
2022-12-06T10:36:55.937Z,4.16
2022-12-06T10:37:55.948Z,4.17
2022-12-06T10:38:55.906Z,4.17
2022-12-06T10:39:55.910Z,4.16
2022-12-06T10:40:55.926Z,4.21
2022-12-06T10:41:55.881Z,4.10
2022-12-06T10:42:55.876Z,4.08
2022-12-06T10:43:55.851Z,4.20
2022-12-06T10:44:56.868Z,4.20
2022-12-06T10:45:55.844Z,4.14
2022-12-06T10:46:55.928Z,4.24
2022-12-06T10:47:55.820Z,4.17
2022-12-06T10:48:55.792Z,4.28
2022-12-06T10:49:55.793Z,4.28
2022-12-06T10:50:55.800Z,4.20
2022-12-06T10:51:55.772Z,4.14
2022-12-06T10:53:00.228Z,4.21
2022-12-06T10:53:56.852Z,4.13
2022-12-06T10:54:55.738Z,4.14
2022-12-06T10:55:55.734Z,4.16
2022-12-06T10:56:55.733Z,4.11
2022-12-06T10:57:55.731Z,4.17
2022-12-06T10:58:55.711Z,4.20
2022-12-06T10:59:55.691Z,4.25
2022-12-06T11:00:55.766Z,4.20
2022-12-06T11:01:55.769Z,4.13
2022-12-06T11:02:55.685Z,4.14
2022-12-06T11:03:55.637Z,4.28
2022-12-06T11:04:55.636Z,4.26
2022-12-06T11:05:55.624Z,4.26
2022-12-06T11:06:55.601Z,4.21
2022-12-06T11:07:55.640Z,4.29
2022-12-06T11:08:55.600Z,4.21
2022-12-06T11:09:55.569Z,4.29
2022-12-06T11:10:55.549Z,4.26
2022-12-06T11:11:55.550Z,4.36
2022-12-06T11:12:55.543Z,4.31
2022-12-06T11:13:55.550Z,4.28
2022-12-06T11:14:55.623Z,4.25
2022-12-06T11:15:55.549Z,4.34
2022-12-06T11:16:55.500Z,4.36
2022-12-06T11:18:00.887Z,4.32
2022-12-06T11:18:56.511Z,4.34
2022-12-06T11:19:55.455Z,4.36
2022-12-06T11:20:55.468Z,4.49
2022-12-06T11:21:55.438Z,4.47
2022-12-06T11:22:55.431Z,4.51
2022-12-06T11:23:55.438Z,4.57
2022-12-06T11:24:55.423Z,4.53
2022-12-06T11:25:55.414Z,4.57
2022-12-06T11:26:55.392Z,4.59
2022-12-06T11:27:55.373Z,4.68
2022-12-06T11:28:55.373Z,4.62
2022-12-06T11:29:55.369Z,4.65
2022-12-06T11:30:55.344Z,4.57
2022-12-06T11:31:55.386Z,4.61
2022-12-06T11:32:55.338Z,4.65
2022-12-06T11:33:55.339Z,4.59
2022-12-06T11:34:55.306Z,4.62
2022-12-06T11:35:55.286Z,4.64
2022-12-06T11:36:59.804Z,4.71
2022-12-06T11:37:56.265Z,4.67
2022-12-06T11:38:55.263Z,4.71
2022-12-06T11:39:55.265Z,4.67
2022-12-06T11:40:55.240Z,4.65
2022-12-06T11:41:55.262Z,4.68
2022-12-06T11:42:55.207Z,4.67
2022-12-06T11:43:55.221Z,4.71
2022-12-06T11:44:55.195Z,4.72
2022-12-06T11:45:55.178Z,4.67
2022-12-06T11:46:55.246Z,4.71
2022-12-06T11:47:55.173Z,4.79
2022-12-06T11:48:55.148Z,4.77
2022-12-06T11:49:55.129Z,4.87
2022-12-06T11:50:55.151Z,4.77
2022-12-06T11:51:55.129Z,4.86
2022-12-06T11:52:55.134Z,4.74
2022-12-06T11:53:55.099Z,4.72
2022-12-06T11:54:55.088Z,4.72
2022-12-06T11:55:55.070Z,4.74
2022-12-06T11:56:55.060Z,4.65
2022-12-06T11:57:55.042Z,4.67
2022-12-06T11:58:55.042Z,4.61
2022-12-06T11:59:55.025Z,4.72
2022-12-06T12:00:55.013Z,4.65
2022-12-06T12:01:55.068Z,4.79
2022-12-06T12:02:55.067Z,4.84
2022-12-06T12:03:54.977Z,4.91
2022-12-06T12:04:54.985Z,4.97
2022-12-06T12:05:54.951Z,4.96
2022-12-06T12:06:54.960Z,4.84
2022-12-06T12:07:55.023Z,4.88
2022-12-06T12:08:54.919Z,4.84
2022-12-06T12:09:54.912Z,4.87
2022-12-06T12:10:54.926Z,5.02
2022-12-06T12:11:54.892Z,4.99
2022-12-06T12:12:54.872Z,4.99
2022-12-06T12:13:55.937Z,5.04
2022-12-06T12:14:54.849Z,5.02
2022-12-06T12:15:54.855Z,5.02
2022-12-06T12:16:54.946Z,4.99
2022-12-06T12:17:54.835Z,5.05
2022-12-06T12:18:54.807Z,5.17
2022-12-06T12:19:54.801Z,5.22
2022-12-06T12:20:54.792Z,5.30
2022-12-06T12:21:54.797Z,5.32
2022-12-06T12:22:54.808Z,5.37
2022-12-06T12:23:54.761Z,5.51
2022-12-06T12:25:55.758Z,5.45
2022-12-06T12:26:54.713Z,5.51
2022-12-06T12:27:54.812Z,5.55
2022-12-06T12:28:54.706Z,5.52
2022-12-06T12:29:54.692Z,5.62
2022-12-06T12:30:54.684Z,5.66
2022-12-06T12:31:54.752Z,5.77
2022-12-06T12:32:54.666Z,5.75
2022-12-06T12:33:54.642Z,5.75
2022-12-06T12:34:54.649Z,5.81
2022-12-06T12:35:54.627Z,5.83
2022-12-06T12:36:54.641Z,5.77
2022-12-06T12:37:54.611Z,5.92
2022-12-06T12:38:54.620Z,5.92
2022-12-06T12:39:54.593Z,6.02
2022-12-06T12:40:54.562Z,6.05
2022-12-06T12:41:54.601Z,5.99
2022-12-06T12:42:54.643Z,6.14
2022-12-06T12:44:07.657Z,6.16
2022-12-06T12:44:55.526Z,6.21
2022-12-06T12:45:59.562Z,6.13
2022-12-06T12:46:55.550Z,6.27
2022-12-06T12:47:54.488Z,6.33
2022-12-06T12:48:54.473Z,6.21
2022-12-06T12:49:54.472Z,6.43
2022-12-06T12:50:54.476Z,6.28
2022-12-06T12:51:54.463Z,6.27
2022-12-06T12:52:54.477Z,6.19
2022-12-06T12:53:54.426Z,5.99
2022-12-06T12:54:54.443Z,5.90
2022-12-06T12:55:54.408Z,5.83
2022-12-06T12:56:54.384Z,5.59
2022-12-06T12:57:54.405Z,5.58
2022-12-06T12:58:54.374Z,5.55
2022-12-06T12:59:54.362Z,5.51
2022-12-06T13:00:54.439Z,5.55
2022-12-06T13:01:54.497Z,5.45
2022-12-06T13:02:54.372Z,5.47
2022-12-06T13:03:54.318Z,5.42
2022-12-06T13:05:11.013Z,5.49
2022-12-06T13:05:55.301Z,5.41
2022-12-06T13:06:54.280Z,5.37
2022-12-06T13:07:54.378Z,5.29
2022-12-06T13:08:54.248Z,5.27
2022-12-06T13:09:54.253Z,5.26
2022-12-06T13:10:58.900Z,5.24
2022-12-06T13:11:55.230Z,5.22
2022-12-06T13:12:54.207Z,5.20
2022-12-06T13:13:54.230Z,5.15
2022-12-06T13:14:54.198Z,5.22
2022-12-06T13:15:54.192Z,5.19
2022-12-06T13:16:54.186Z,5.11
2022-12-06T13:17:59.420Z,5.06
2022-12-06T13:18:55.166Z,5.05